createdAt,value
2023-04-08T00:00:54.991Z,15.33
2023-04-08T00:03:24.515Z,15.40
2023-04-08T00:05:52.439Z,15.07
2023-04-08T00:08:20.640Z,15.00
2023-04-08T00:10:48.304Z,14.27
2023-04-08T00:13:17.765Z,14.30
2023-04-08T00:15:46.070Z,15.37
2023-04-08T00:18:15.100Z,15.03
2023-04-08T00:20:44.498Z,14.63
2023-04-08T00:23:12.358Z,14.37
2023-04-08T00:25:40.132Z,14.20
2023-04-08T00:28:08.071Z,13.63
2023-04-08T00:30:36.345Z,13.60
2023-04-08T00:33:04.451Z,13.57
2023-04-08T00:35:32.363Z,13.83
2023-04-08T00:38:01.901Z,14.30
2023-04-08T00:40:29.806Z,13.63
2023-04-08T00:42:58.200Z,14.80
2023-04-08T00:45:26.160Z,15.20
2023-04-08T00:47:53.997Z,15.70
2023-04-08T00:50:22.173Z,15.23
2023-04-08T00:52:50.267Z,15.20
2023-04-08T00:55:19.417Z,15.47
2023-04-08T00:57:49.851Z,15.57
2023-04-08T01:00:18.833Z,15.63
2023-04-08T01:02:51.331Z,16.27
2023-04-08T01:05:26.122Z,16.43
2023-04-08T01:07:54.040Z,16.73
2023-04-08T01:10:24.742Z,17.20
2023-04-08T01:12:56.619Z,16.67
2023-04-08T01:15:25.032Z,16.83
2023-04-08T01:17:54.785Z,18.80
2023-04-08T01:20:26.407Z,17.20
2023-04-08T01:23:04.713Z,18.03
2023-04-08T01:25:35.466Z,16.90
2023-04-08T01:28:06.784Z,16.63
2023-04-08T01:30:35.867Z,16.63
2023-04-08T01:33:04.324Z,16.90
2023-04-08T01:35:33.005Z,17.43
2023-04-08T01:38:01.621Z,17.13
2023-04-08T01:40:29.901Z,16.53
2023-04-08T01:43:04.221Z,16.40
2023-04-08T01:45:33.371Z,16.57
2023-04-08T01:48:05.679Z,16.03
2023-04-08T01:50:35.297Z,16.87
2023-04-08T01:53:05.665Z,17.33
2023-04-08T01:55:33.850Z,17.40
2023-04-08T01:58:02.473Z,16.83
2023-04-08T02:00:31.650Z,16.10
2023-04-08T02:03:05.179Z,16.77
2023-04-08T02:05:33.904Z,16.10
2023-04-08T02:08:01.775Z,16.77
2023-04-08T02:10:29.553Z,16.83
2023-04-08T02:12:58.077Z,16.93
2023-04-08T02:15:27.363Z,16.57
2023-04-08T02:17:59.362Z,15.60
2023-04-08T02:20:33.130Z,16.17
2023-04-08T02:23:05.852Z,15.17
2023-04-08T02:25:36.692Z,16.90
2023-04-08T02:28:06.105Z,16.73
2023-04-08T02:30:34.272Z,16.67
2023-04-08T02:33:02.899Z,16.70
2023-04-08T02:35:32.883Z,17.00
2023-04-08T02:38:00.964Z,17.73
2023-04-08T02:40:30.307Z,18.03
2023-04-08T02:42:58.740Z,17.80
2023-04-08T02:45:29.132Z,17.63
2023-04-08T02:47:58.121Z,18.30
2023-04-08T02:50:26.018Z,18.57
2023-04-08T02:52:55.187Z,18.33
2023-04-08T02:55:23.027Z,17.67
2023-04-08T02:57:51.017Z,18.97
2023-04-08T03:00:19.264Z,19.00
2023-04-08T03:02:47.185Z,17.50
2023-04-08T03:05:16.342Z,19.47
2023-04-08T03:07:44.212Z,18.37
2023-04-08T03:10:13.305Z,19.03
2023-04-08T03:12:41.156Z,19.37
2023-04-08T03:15:09.577Z,18.37
2023-04-08T03:17:37.343Z,18.37
2023-04-08T03:20:06.104Z,19.07
2023-04-08T03:22:34.314Z,17.50
2023-04-08T03:25:02.058Z,19.13
2023-04-08T03:27:31.395Z,18.10
2023-04-08T03:29:59.133Z,19.23
2023-04-08T03:32:26.958Z,20.23
2023-04-08T03:34:54.732Z,19.90
2023-04-08T03:37:22.507Z,20.40
2023-04-08T03:39:50.317Z,20.70
2023-04-08T03:42:18.129Z,20.33
2023-04-08T03:44:47.261Z,19.47
2023-04-08T03:47:15.077Z,19.40
2023-04-08T03:49:42.797Z,20.33
2023-04-08T03:52:10.596Z,19.00
2023-04-08T03:54:38.481Z,19.20
2023-04-08T03:57:06.204Z,19.37
2023-04-08T03:59:34.926Z,20.27
2023-04-08T04:02:04.139Z,20.33
2023-04-08T04:04:32.130Z,19.80
2023-04-08T04:06:59.837Z,19.63
2023-04-08T04:09:27.537Z,19.80
2023-04-08T04:11:55.306Z,19.00
2023-04-08T04:14:23.046Z,18.93
2023-04-08T04:16:50.841Z,20.13
2023-04-08T04:19:19.960Z,18.67
2023-04-08T04:21:47.688Z,19.30
2023-04-08T04:24:15.397Z,18.47
2023-04-08T04:26:43.133Z,18.87
2023-04-08T04:29:10.940Z,18.50
2023-04-08T04:31:38.803Z,18.57
2023-04-08T04:34:06.771Z,17.40
2023-04-08T04:36:35.916Z,18.30
2023-04-08T04:39:03.805Z,18.00
2023-04-08T04:41:31.597Z,20.27
2023-04-08T04:43:59.320Z,20.07
2023-04-08T04:46:27.488Z,20.40
2023-04-08T04:48:55.325Z,20.93
2023-04-08T04:51:23.293Z,21.53
2023-04-08T04:53:52.756Z,20.43
2023-04-08T04:56:21.222Z,20.80
2023-04-08T04:58:49.275Z,20.50
2023-04-08T05:01:17.208Z,20.70
2023-04-08T05:03:45.110Z,20.27
2023-04-08T05:06:12.981Z,21.53
2023-04-08T05:08:41.119Z,20.13
2023-04-08T05:11:11.986Z,20.13
2023-04-08T05:13:39.758Z,19.00
2023-04-08T05:16:08.197Z,19.63
2023-04-08T05:18:36.133Z,20.73
2023-04-08T05:21:04.106Z,19.83
2023-04-08T05:23:31.889Z,20.57
2023-04-08T05:25:59.698Z,20.00
2023-04-08T05:28:29.828Z,19.90
2023-04-08T05:30:57.619Z,19.00
2023-04-08T05:33:26.607Z,17.80
2023-04-08T05:35:54.390Z,18.53
2023-04-08T05:38:22.261Z,18.33
2023-04-08T05:40:50.020Z,18.37
2023-04-08T05:43:17.721Z,17.20
2023-04-08T05:45:46.911Z,16.07
2023-04-08T05:48:14.843Z,16.97
2023-04-08T05:50:44.140Z,17.43
2023-04-08T05:53:12.090Z,16.20
2023-04-08T05:55:39.807Z,16.77
2023-04-08T05:58:07.586Z,16.27
2023-04-08T06:00:35.341Z,16.33
2023-04-08T06:03:04.802Z,16.20
2023-04-08T06:05:32.903Z,16.03
2023-04-08T06:08:00.770Z,15.23
2023-04-08T06:10:28.551Z,16.17
2023-04-08T06:12:56.374Z,14.77
2023-04-08T06:15:24.273Z,14.90
2023-04-08T06:17:52.043Z,15.33
2023-04-08T06:20:21.055Z,14.43
2023-04-08T06:22:48.745Z,14.37
2023-04-08T06:25:17.041Z,14.50
2023-04-08T06:27:44.894Z,15.30
2023-04-08T06:30:13.057Z,15.00
2023-04-08T06:32:40.844Z,14.97
2023-04-08T06:35:09.473Z,15.53
2023-04-08T06:37:38.859Z,14.53
2023-04-08T06:40:07.947Z,14.73
2023-04-08T06:42:35.969Z,13.83
2023-04-08T06:45:04.040Z,13.43
2023-04-08T06:47:31.869Z,13.60
2023-04-08T06:49:59.724Z,13.33
2023-04-08T06:52:27.565Z,13.13
2023-04-08T06:54:57.120Z,14.57
2023-04-08T06:57:24.869Z,13.03
2023-04-08T06:59:53.100Z,12.47
2023-04-08T07:02:22.226Z,13.07
2023-04-08T07:04:50.326Z,13.13
2023-04-08T07:07:18.363Z,13.50
2023-04-08T07:09:46.855Z,13.37
2023-04-08T07:12:15.957Z,13.90
2023-04-08T07:14:43.741Z,14.50
2023-04-08T07:17:12.257Z,14.27
2023-04-08T07:19:40.100Z,16.13
2023-04-08T07:22:07.912Z,14.27
2023-04-08T07:24:35.646Z,14.00
2023-04-08T07:27:03.398Z,13.07
2023-04-08T07:29:32.516Z,14.70
2023-04-08T07:32:00.305Z,13.67
2023-04-08T07:34:28.203Z,14.30
2023-04-08T07:36:56.024Z,14.00
2023-04-08T07:39:23.748Z,12.83
2023-04-08T07:41:51.541Z,13.50
2023-04-08T07:44:20.056Z,12.57
2023-04-08T07:46:51.626Z,11.50
2023-04-08T07:49:19.424Z,11.83
2023-04-08T07:51:47.332Z,12.33
2023-04-08T07:54:17.344Z,13.50
2023-04-08T07:56:45.512Z,13.70
2023-04-08T07:59:13.568Z,13.07
2023-04-08T08:01:41.420Z,14.00
2023-04-08T08:04:10.776Z,13.07
2023-04-08T08:06:38.680Z,12.67
2023-04-08T08:09:06.421Z,12.93
2023-04-08T08:11:34.148Z,12.50
2023-04-08T08:14:02.100Z,12.00
2023-04-08T08:16:30.183Z,13.30
2023-04-08T08:18:57.921Z,12.37
2023-04-08T08:21:27.749Z,12.73
2023-04-08T08:23:56.945Z,12.70
2023-04-08T08:26:24.806Z,12.70
2023-04-08T08:28:52.605Z,11.80
2023-04-08T08:31:20.472Z,11.23
2023-04-08T08:33:48.647Z,12.23
2023-04-08T08:36:16.736Z,12.57
2023-04-08T08:38:46.110Z,11.90
2023-04-08T08:41:13.865Z,12.07
2023-04-08T08:43:41.705Z,11.63
2023-04-08T08:46:11.447Z,11.47
2023-04-08T08:48:40.737Z,11.33
2023-04-08T08:51:09.953Z,11.80
2023-04-08T08:53:37.902Z,11.43
2023-04-08T08:58:40.955Z,11.13
2023-04-08T09:01:31.239Z,10.97
2023-04-08T09:04:09.029Z,10.03
2023-04-08T09:06:37.250Z,10.93
2023-04-08T09:09:06.132Z,9.77
2023-04-08T09:11:35.278Z,9.73
2023-04-08T09:14:03.328Z,10.03
2023-04-08T09:16:32.366Z,10.37
2023-04-08T09:19:09.869Z,8.53
2023-04-08T09:21:37.759Z,8.70
2023-04-08T09:24:06.133Z,8.50
2023-04-08T09:26:35.646Z,7.17
2023-04-08T09:29:18.438Z,6.40
2023-04-08T09:31:55.718Z,6.13
2023-04-08T09:34:23.894Z,5.63
2023-04-08T09:36:51.761Z,5.03
2023-04-08T09:39:20.216Z,3.83
2023-04-08T09:41:51.139Z,3.20
2023-04-08T09:44:20.772Z,3.00
2023-04-08T09:46:57.435Z,2.70
2023-04-08T09:49:28.163Z,2.73
2023-04-08T09:52:01.832Z,3.00
2023-04-08T09:54:35.575Z,2.73
2023-04-08T09:57:11.617Z,3.13
2023-04-08T09:59:40.372Z,3.07
2023-04-08T10:02:11.328Z,3.00
2023-04-08T10:04:40.621Z,3.17
2023-04-08T10:07:09.813Z,3.07
2023-04-08T10:09:39.093Z,3.40
2023-04-08T10:12:08.449Z,4.50
2023-04-08T10:14:36.450Z,4.00
2023-04-08T10:17:26.450Z,4.00
2023-04-08T10:19:54.562Z,4.43
2023-04-08T10:22:51.712Z,4.23
2023-04-08T10:25:31.099Z,3.50
2023-04-08T10:28:00.820Z,3.93
2023-04-08T10:30:41.918Z,3.73
2023-04-08T10:33:14.635Z,3.77
2023-04-08T10:35:46.211Z,3.80
2023-04-08T10:38:14.658Z,4.00
2023-04-08T10:40:42.843Z,3.40
2023-04-08T10:43:12.994Z,2.53
2023-04-08T10:45:41.223Z,3.30
2023-04-08T10:48:16.473Z,2.57
2023-04-08T10:50:44.628Z,2.97
2023-04-08T10:53:12.356Z,3.07
2023-04-08T10:55:40.102Z,2.67
2023-04-08T10:58:08.852Z,2.70
2023-04-08T11:00:40.334Z,2.17
2023-04-08T11:03:09.517Z,2.00
2023-04-08T11:05:38.301Z,1.80
2023-04-08T11:08:07.005Z,2.00
2023-04-08T11:10:38.603Z,2.03
2023-04-08T11:13:08.713Z,1.80
2023-04-08T11:15:37.191Z,1.70
2023-04-08T11:18:06.841Z,1.40
2023-04-08T11:20:37.183Z,1.93
2023-04-08T11:23:04.998Z,1.70
2023-04-08T11:25:32.853Z,1.53
2023-04-08T11:28:01.359Z,1.50
2023-04-08T11:30:29.901Z,1.73
2023-04-08T11:32:58.182Z,1.63
2023-04-08T11:35:29.878Z,1.90
2023-04-08T11:37:58.047Z,1.73
2023-04-08T11:40:26.532Z,1.67
2023-04-08T11:42:54.328Z,1.37
2023-04-08T11:45:22.767Z,1.70
2023-04-08T11:47:50.802Z,1.57
2023-04-08T11:50:30.050Z,1.57
2023-04-08T11:53:00.165Z,1.77
2023-04-08T11:55:29.493Z,1.80
2023-04-08T11:57:58.684Z,1.70
2023-04-08T12:00:28.037Z,1.53
2023-04-08T12:02:56.181Z,1.60
2023-04-08T12:05:23.965Z,1.60
2023-04-08T12:07:53.090Z,1.60
2023-04-08T12:10:21.146Z,1.60
2023-04-08T12:12:48.994Z,2.07
2023-04-08T12:15:16.772Z,1.97
2023-04-08T12:17:44.811Z,1.53
2023-04-08T12:20:13.521Z,1.73
2023-04-08T12:22:41.591Z,1.97
2023-04-08T12:25:11.174Z,1.90
2023-04-08T12:27:38.954Z,1.60
2023-04-08T12:30:08.729Z,1.70
2023-04-08T12:32:38.304Z,1.70
2023-04-08T12:35:07.990Z,1.80
2023-04-08T12:37:36.522Z,2.00
2023-04-08T12:40:04.338Z,1.80
2023-04-08T12:42:33.505Z,1.53
2023-04-08T12:45:01.610Z,1.70
2023-04-08T12:47:29.446Z,1.80
2023-04-08T12:49:57.641Z,1.70
2023-04-08T12:52:25.419Z,1.80
2023-04-08T12:54:53.107Z,1.50
2023-04-08T12:57:20.862Z,1.80
2023-04-08T12:59:50.037Z,1.50
2023-04-08T13:02:17.917Z,1.40
2023-04-08T13:04:45.993Z,1.77
2023-04-08T13:07:13.962Z,2.10
2023-04-08T13:09:42.163Z,1.50
2023-04-08T13:12:12.101Z,1.63
2023-04-08T13:14:39.830Z,1.60
2023-04-08T13:17:08.955Z,1.77
2023-04-08T13:19:37.025Z,1.80
2023-04-08T13:22:04.814Z,1.50
2023-04-08T13:24:33.615Z,1.73
2023-04-08T13:27:01.805Z,1.50
2023-04-08T13:29:29.711Z,1.77
2023-04-08T13:32:01.431Z,1.80
2023-04-08T13:37:14.116Z,1.80
2023-04-08T13:39:41.844Z,1.90
2023-04-08T13:42:10.116Z,1.60
2023-04-08T13:44:37.832Z,1.57
2023-04-08T13:47:05.603Z,1.40
2023-04-08T13:49:33.380Z,1.80
2023-04-08T13:52:01.212Z,1.87
2023-04-08T13:54:31.122Z,1.90
2023-04-08T13:56:58.958Z,1.70
2023-04-08T13:59:26.681Z,1.70
2023-04-08T14:01:55.380Z,1.80
2023-04-08T14:04:23.644Z,1.70
2023-04-08T14:06:53.143Z,2.20
2023-04-08T14:09:21.780Z,2.00
2023-04-08T14:11:51.185Z,2.20
2023-04-08T14:14:19.002Z,2.07
2023-04-08T14:16:46.848Z,2.30
2023-04-08T14:19:15.115Z,1.83
2023-04-08T14:21:45.619Z,1.87
2023-04-08T14:24:13.488Z,1.87
2023-04-08T14:26:41.452Z,1.70
2023-04-08T14:29:10.633Z,1.60
2023-04-08T14:31:38.357Z,1.93
2023-04-08T14:34:06.837Z,1.90
2023-04-08T14:36:34.659Z,2.10
2023-04-08T14:39:03.429Z,2.40
2023-04-08T14:41:31.478Z,2.43
2023-04-08T14:43:59.269Z,2.50
2023-04-08T14:46:29.191Z,2.50
2023-04-08T14:48:57.245Z,1.90
2023-04-08T14:51:25.066Z,2.10
2023-04-08T14:53:52.829Z,1.80
2023-04-08T14:56:21.141Z,1.80
2023-04-08T14:58:49.450Z,1.70
2023-04-08T15:01:18.911Z,1.83
2023-04-08T15:03:48.240Z,1.97
2023-04-08T15:06:17.764Z,1.70
2023-04-08T15:08:46.037Z,1.80
2023-04-08T15:11:13.924Z,1.70
2023-04-08T15:13:41.756Z,2.23
2023-04-08T15:16:09.562Z,2.23
2023-04-08T15:18:37.536Z,2.30
2023-04-08T15:21:07.142Z,2.17
2023-04-08T15:23:35.446Z,1.83
2023-04-08T15:26:03.231Z,1.90
2023-04-08T15:28:31.441Z,2.07
2023-04-08T15:30:59.162Z,2.23
2023-04-08T15:33:27.061Z,2.20
2023-04-08T15:35:54.932Z,2.30
2023-04-08T15:38:24.113Z,2.10
2023-04-08T15:40:52.584Z,2.47
2023-04-08T15:43:20.475Z,2.63
2023-04-08T15:45:48.271Z,2.63
2023-04-08T15:48:16.056Z,2.93
2023-04-08T15:50:43.973Z,2.60
2023-04-08T15:53:12.222Z,2.27
2023-04-08T15:55:43.123Z,2.17
2023-04-08T15:58:11.061Z,2.30
2023-04-08T16:00:38.876Z,2.27
2023-04-08T16:03:08.878Z,2.60
2023-04-08T16:05:41.099Z,3.00
2023-04-08T16:08:11.608Z,2.80
2023-04-08T16:10:39.360Z,2.70
2023-04-08T16:13:08.672Z,2.63
2023-04-08T16:15:39.866Z,2.50
2023-04-08T16:18:08.996Z,2.17
2023-04-08T16:20:38.446Z,2.60
2023-04-08T16:23:09.655Z,2.10
2023-04-08T16:25:37.452Z,2.40
2023-04-08T16:28:05.309Z,2.43
2023-04-08T16:30:37.529Z,2.30
2023-04-08T16:33:06.281Z,3.00
2023-04-08T16:35:34.478Z,3.00
2023-04-08T16:38:02.302Z,3.20
2023-04-08T16:40:33.155Z,3.10
2023-04-08T16:43:01.093Z,2.90
2023-04-08T16:45:30.359Z,3.20
2023-04-08T16:48:00.366Z,3.10
2023-04-08T16:50:28.936Z,2.83
2023-04-08T16:52:56.711Z,2.97
2023-04-08T16:55:24.518Z,3.30
2023-04-08T16:57:52.267Z,3.30
2023-04-08T17:00:21.242Z,3.40
2023-04-08T17:02:49.615Z,3.30
2023-04-08T17:05:19.327Z,3.37
2023-04-08T17:07:47.195Z,3.43
2023-04-08T17:10:15.469Z,3.30
2023-04-08T17:12:43.292Z,3.43
2023-04-08T17:15:12.073Z,3.80
2023-04-08T17:17:40.041Z,3.70
2023-04-08T17:20:09.041Z,3.93
2023-04-08T17:22:39.957Z,3.80
2023-04-08T17:25:08.975Z,3.50
2023-04-08T17:27:36.940Z,3.70
2023-04-08T17:30:05.365Z,4.10
2023-04-08T17:32:33.218Z,4.47
2023-04-08T17:35:02.105Z,4.30
2023-04-08T17:37:29.947Z,5.53
2023-04-08T17:39:59.176Z,5.00
2023-04-08T17:42:27.585Z,5.13
2023-04-08T17:44:56.142Z,4.73
2023-04-08T17:47:23.995Z,4.60
2023-04-08T17:49:55.706Z,5.17
2023-04-08T17:52:23.654Z,5.03
2023-04-08T17:54:51.449Z,5.40
2023-04-08T17:57:20.640Z,5.43
2023-04-08T17:59:48.523Z,5.50
2023-04-08T18:02:16.615Z,6.17
2023-04-08T18:04:44.594Z,6.40
2023-04-08T18:07:12.446Z,11.45
2023-04-08T18:09:40.893Z,9.30
2023-04-08T18:12:08.604Z,8.70
2023-04-08T18:14:37.764Z,8.37
2023-04-08T18:17:05.914Z,8.37
2023-04-08T18:19:33.760Z,8.47
2023-04-08T18:22:01.583Z,8.50
2023-04-08T18:24:29.394Z,8.93
2023-04-08T18:27:03.874Z,7.93
2023-04-08T18:29:33.008Z,8.63
2023-04-08T18:32:02.151Z,10.10
2023-04-08T18:34:31.930Z,9.77
2023-04-08T18:37:00.798Z,10.53
2023-04-08T18:39:28.627Z,9.87
2023-04-08T18:41:56.621Z,10.30
2023-04-08T18:44:24.469Z,10.33
2023-04-08T18:46:52.356Z,10.07
2023-04-08T18:49:21.870Z,10.53
2023-04-08T18:52:01.196Z,10.83
2023-04-08T18:54:30.755Z,11.43
2023-04-08T18:56:59.195Z,11.30
2023-04-08T18:59:28.652Z,11.03
2023-04-08T19:01:57.252Z,12.10
2023-04-08T19:04:26.537Z,11.33
2023-04-08T19:06:54.336Z,11.80
2023-04-08T19:09:22.091Z,10.60
2023-04-08T19:11:49.845Z,11.03
2023-04-08T19:14:17.843Z,10.20
2023-04-08T19:16:46.167Z,11.27
2023-04-08T19:19:16.090Z,11.00
2023-04-08T19:21:47.008Z,11.20
2023-04-08T19:24:14.861Z,10.80
2023-04-08T19:26:42.664Z,10.30
2023-04-08T19:29:11.911Z,11.57
2023-04-08T19:31:40.905Z,11.77
2023-04-08T19:34:08.710Z,12.40
2023-04-08T19:36:36.503Z,11.63
2023-04-08T19:39:05.808Z,12.20
2023-04-08T19:41:33.520Z,12.57
2023-04-08T19:44:01.747Z,12.33
2023-04-08T19:46:29.598Z,12.70
2023-04-08T19:48:58.696Z,11.10
2023-04-08T19:51:29.205Z,10.10
2023-04-08T19:53:57.989Z,9.70
2023-04-08T19:56:27.959Z,9.07
2023-04-08T19:58:55.792Z,9.03
2023-04-08T20:01:23.835Z,9.03
2023-04-08T20:03:52.823Z,8.27
2023-04-08T20:06:23.048Z,9.03
2023-04-08T20:08:52.939Z,9.30
2023-04-08T20:11:21.066Z,9.27
2023-04-08T20:13:51.692Z,10.23
2023-04-08T20:16:19.594Z,10.03
2023-04-08T20:18:47.411Z,8.40
2023-04-08T20:21:15.184Z,10.27
2023-04-08T20:23:47.187Z,9.97
2023-04-08T20:26:15.607Z,8.97
2023-04-08T20:28:44.583Z,8.83
2023-04-08T20:31:14.515Z,8.53
2023-04-08T20:33:45.382Z,9.87
2023-04-08T20:36:13.608Z,8.70
2023-04-08T20:38:42.639Z,8.17
2023-04-08T20:41:10.618Z,7.23
2023-04-08T20:43:39.437Z,7.10
2023-04-08T20:46:07.491Z,7.00
2023-04-08T20:48:36.735Z,7.10
2023-04-08T20:51:04.638Z,7.43
2023-04-08T20:53:34.440Z,7.30
2023-04-08T20:56:02.638Z,8.17
2023-04-08T20:58:30.743Z,7.93
2023-04-08T21:00:59.102Z,7.57
2023-04-08T21:03:27.783Z,7.90
2023-04-08T21:05:57.575Z,7.70
2023-04-08T21:08:25.408Z,7.30
2023-04-08T21:10:54.801Z,8.00
2023-04-08T21:13:22.875Z,7.57
2023-04-08T21:15:50.864Z,7.33
2023-04-08T21:18:19.712Z,7.20
2023-04-08T21:20:49.468Z,7.07
2023-04-08T21:23:19.098Z,6.80
2023-04-08T21:25:47.769Z,7.33
2023-04-08T21:28:18.878Z,6.77
2023-04-08T21:30:46.601Z,6.80
2023-04-08T21:33:14.463Z,7.07
2023-04-08T21:35:42.491Z,7.20
2023-04-08T21:38:10.363Z,7.60
2023-04-08T21:40:39.527Z,7.03
2023-04-08T21:43:07.328Z,7.07
2023-04-08T21:45:35.409Z,6.47
2023-04-08T21:48:03.448Z,6.43
2023-04-08T21:50:32.473Z,6.27
2023-04-08T21:53:00.762Z,7.20
2023-04-08T21:55:29.319Z,7.47
2023-04-08T21:57:59.415Z,7.17
2023-04-08T22:00:27.340Z,6.67
2023-04-08T22:02:55.302Z,6.73
2023-04-08T22:05:23.405Z,6.93
2023-04-08T22:07:51.197Z,6.90
2023-04-08T22:10:19.041Z,6.73
2023-04-08T22:12:47.028Z,6.37
2023-04-08T22:15:16.202Z,5.37
2023-04-08T22:17:44.055Z,5.47
2023-04-08T22:20:12.820Z,5.90
2023-04-08T22:22:40.665Z,5.77
2023-04-08T22:25:09.188Z,5.90
2023-04-08T22:27:37.289Z,5.50
2023-04-08T22:30:05.818Z,5.60
2023-04-08T22:32:35.024Z,6.03
2023-04-08T22:35:03.001Z,5.47
2023-04-08T22:37:31.724Z,5.13
2023-04-08T22:40:00.642Z,5.17
2023-04-08T22:42:28.447Z,5.50
2023-04-08T22:44:56.236Z,5.50
2023-04-08T22:47:24.080Z,5.20
2023-04-08T22:49:53.175Z,5.47
2023-04-08T22:52:21.074Z,5.13
2023-04-08T22:54:48.846Z,5.17
2023-04-08T22:57:16.655Z,4.70
2023-04-08T22:59:44.591Z,4.87
2023-04-08T23:02:12.463Z,5.60
2023-04-08T23:04:40.393Z,4.83
2023-04-08T23:07:09.545Z,5.03
2023-04-08T23:09:37.383Z,5.00
2023-04-08T23:12:05.523Z,4.57
2023-04-08T23:14:33.253Z,4.83
2023-04-08T23:17:01.347Z,5.20
2023-04-08T23:19:30.006Z,4.53
2023-04-08T23:21:57.734Z,4.80
2023-04-08T23:24:26.860Z,5.20
2023-04-08T23:26:54.633Z,4.53
2023-04-08T23:29:22.505Z,4.97
2023-04-08T23:31:50.209Z,5.30
2023-04-08T23:34:18.016Z,4.73
2023-04-08T23:36:45.889Z,5.00
2023-04-08T23:39:13.627Z,4.83
2023-04-08T23:41:42.967Z,4.53
2023-04-08T23:44:10.746Z,4.60
2023-04-08T23:46:38.604Z,4.77
2023-04-08T23:49:07.422Z,4.37
2023-04-08T23:51:35.819Z,3.90
2023-04-08T23:54:03.588Z,3.70
2023-04-08T23:56:31.397Z,3.33
2023-04-08T23:59:00.561Z,3.43
